sensor_id;sensor_type;location;lat;lon;timestamp;pressure;altitude;pressure_sealevel;temperature;humidity
70544;BME280;58097;48.364;-1.224;2022-08-19T00:00:24;99831.06;;;19.37;68.00
70544;BME280;58097;48.364;-1.224;2022-08-19T00:02:51;99832.13;;;19.36;67.87
70544;BME280;58097;48.364;-1.224;2022-08-19T00:05:18;99826.09;;;19.33;67.80
70544;BME280;58097;48.364;-1.224;2022-08-19T00:07:44;99839.25;;;19.32;67.57
70544;BME280;58097;48.364;-1.224;2022-08-19T00:10:12;99837.53;;;19.31;67.73
70544;BME280;58097;48.364;-1.224;2022-08-19T00:12:39;99836.91;;;19.29;67.71
70544;BME280;58097;48.364;-1.224;2022-08-19T00:15:08;99838.84;;;19.29;68.09
70544;BME280;58097;48.364;-1.224;2022-08-19T00:17:38;99841.63;;;19.29;68.35
70544;BME280;58097;48.364;-1.224;2022-08-19T00:20:04;99836.91;;;19.29;68.25
70544;BME280;58097;48.364;-1.224;2022-08-19T00:22:30;99830.66;;;19.27;69.20
70544;BME280;58097;48.364;-1.224;2022-08-19T00:24:56;99835.63;;;19.25;68.20
70544;BME280;58097;48.364;-1.224;2022-08-19T00:27:22;99840.38;;;19.25;68.45
70544;BME280;58097;48.364;-1.224;2022-08-19T00:29:47;99834.75;;;19.25;68.39
70544;BME280;58097;48.364;-1.224;2022-08-19T00:32:13;99826.34;;;19.25;68.56
70544;BME280;58097;48.364;-1.224;2022-08-19T00:34:39;99823.78;;;19.23;68.58
70544;BME280;58097;48.364;-1.224;2022-08-19T00:37:04;99832.41;;;19.22;68.39
70544;BME280;58097;48.364;-1.224;2022-08-19T00:39:30;99833.91;;;19.24;68.58
70544;BME280;58097;48.364;-1.224;2022-08-19T00:41:55;99830.03;;;19.25;68.65
70544;BME280;58097;48.364;-1.224;2022-08-19T00:44:25;99820.31;;;19.28;68.35
70544;BME280;58097;48.364;-1.224;2022-08-19T00:46:53;99823.97;;;19.28;68.78
70544;BME280;58097;48.364;-1.224;2022-08-19T00:49:29;99817.28;;;19.29;68.60
70544;BME280;58097;48.364;-1.224;2022-08-19T00:55:03;99821.63;;;19.25;69.24
70544;BME280;58097;48.364;-1.224;2022-08-19T00:57:35;99819.66;;;19.26;69.22
70544;BME280;58097;48.364;-1.224;2022-08-19T01:00:08;99820.97;;;19.23;69.22
70544;BME280;58097;48.364;-1.224;2022-08-19T01:02:37;99819.03;;;19.24;69.31
70544;BME280;58097;48.364;-1.224;2022-08-19T01:05:06;99815.38;;;19.23;69.28
70544;BME280;58097;48.364;-1.224;2022-08-19T01:07:35;99806.34;;;19.21;69.11
70544;BME280;58097;48.364;-1.224;2022-08-19T01:10:05;99800.09;;;19.19;69.01
70544;BME280;58097;48.364;-1.224;2022-08-19T01:12:32;99804.59;;;19.20;69.56
70544;BME280;58097;48.364;-1.224;2022-08-19T01:14:58;99805.47;;;19.21;69.24
70544;BME280;58097;48.364;-1.224;2022-08-19T01:17:25;99803.53;;;19.21;69.32
70544;BME280;58097;48.364;-1.224;2022-08-19T01:19:50;99810.84;;;19.22;69.23
70544;BME280;58097;48.364;-1.224;2022-08-19T01:22:30;99809.78;;;19.23;69.25
70544;BME280;58097;48.364;-1.224;2022-08-19T01:24:57;99806.53;;;19.26;70.04
70544;BME280;58097;48.364;-1.224;2022-08-19T01:27:23;99812.13;;;19.26;69.24
70544;BME280;58097;48.364;-1.224;2022-08-19T01:29:51;99810.63;;;19.24;70.25
70544;BME280;58097;48.364;-1.224;2022-08-19T01:32:17;99809.13;;;19.21;70.09
70544;BME280;58097;48.364;-1.224;2022-08-19T01:34:44;99811.06;;;19.21;69.69
70544;BME280;58097;48.364;-1.224;2022-08-19T01:37:13;99808.50;;;19.19;70.60
70544;BME280;58097;48.364;-1.224;2022-08-19T01:39:40;99811.75;;;19.16;70.11
70544;BME280;58097;48.364;-1.224;2022-08-19T01:42:07;99808.06;;;19.15;70.20
70544;BME280;58097;48.364;-1.224;2022-08-19T01:44:37;99806.13;;;19.16;70.12
70544;BME280;58097;48.364;-1.224;2022-08-19T01:47:03;99805.50;;;19.14;70.16
70544;BME280;58097;48.364;-1.224;2022-08-19T01:49:29;99799.25;;;19.12;70.85
70544;BME280;58097;48.364;-1.224;2022-08-19T01:51:55;99804.84;;;19.12;70.95
70544;BME280;58097;48.364;-1.224;2022-08-19T01:54:22;99804.00;;;19.11;70.25
70544;BME280;58097;48.364;-1.224;2022-08-19T01:56:50;99798.63;;;19.10;70.51
70544;BME280;58097;48.364;-1.224;2022-08-19T01:59:19;99805.28;;;19.09;70.54
70544;BME280;58097;48.364;-1.224;2022-08-19T02:01:45;99808.97;;;19.09;70.63
70544;BME280;58097;48.364;-1.224;2022-08-19T02:04:11;99807.25;;;19.08;71.29
70544;BME280;58097;48.364;-1.224;2022-08-19T02:06:37;99810.22;;;19.07;71.16
70544;BME280;58097;48.364;-1.224;2022-08-19T02:09:04;99818.00;;;19.05;70.94
70544;BME280;58097;48.364;-1.224;2022-08-19T02:11:33;99818.63;;;19.07;70.73
70544;BME280;58097;48.364;-1.224;2022-08-19T02:14:01;99799.69;;;19.09;70.87
70544;BME280;58097;48.364;-1.224;2022-08-19T02:16:27;99824.69;;;19.10;70.68
70544;BME280;58097;48.364;-1.224;2022-08-19T02:18:53;99809.59;;;19.11;70.69
70544;BME280;58097;48.364;-1.224;2022-08-19T02:21:22;99813.25;;;19.12;70.17
70544;BME280;58097;48.364;-1.224;2022-08-19T02:23:48;99810.47;;;19.12;70.56
70544;BME280;58097;48.364;-1.224;2022-08-19T02:26:14;99816.06;;;19.12;69.95
70544;BME280;58097;48.364;-1.224;2022-08-19T02:28:41;99810.22;;;19.07;70.43
70544;BME280;58097;48.364;-1.224;2022-08-19T02:31:13;99805.06;;;19.04;70.26
70544;BME280;58097;48.364;-1.224;2022-08-19T02:33:43;99810.25;;;19.00;70.16
70544;BME280;58097;48.364;-1.224;2022-08-19T02:36:11;99811.78;;;18.96;70.55
70544;BME280;58097;48.364;-1.224;2022-08-19T02:38:39;99806.59;;;18.93;70.73
70544;BME280;58097;48.364;-1.224;2022-08-19T02:41:10;99808.34;;;18.87;71.18
70544;BME280;58097;48.364;-1.224;2022-08-19T02:43:36;99806.19;;;18.83;70.80
70544;BME280;58097;48.364;-1.224;2022-08-19T02:46:25;99801.69;;;18.82;70.97
70544;BME280;58097;48.364;-1.224;2022-08-19T02:48:55;99802.31;;;18.77;71.08
70544;BME280;58097;48.364;-1.224;2022-08-19T02:51:24;99806.63;;;18.73;71.09
70544;BME280;58097;48.364;-1.224;2022-08-19T02:53:50;99810.28;;;18.74;71.45
70544;BME280;58097;48.364;-1.224;2022-08-19T02:56:16;99805.31;;;18.76;72.25
70544;BME280;58097;48.364;-1.224;2022-08-19T02:58:43;99810.91;;;18.76;72.29
70544;BME280;58097;48.364;-1.224;2022-08-19T03:01:09;99818.25;;;18.77;72.26
70544;BME280;58097;48.364;-1.224;2022-08-19T03:03:36;99813.50;;;18.77;73.18
70544;BME280;58097;48.364;-1.224;2022-08-19T03:06:10;99805.56;;;18.81;72.06
70544;BME280;58097;48.364;-1.224;2022-08-19T03:08:39;99810.72;;;18.84;71.79
70544;BME280;58097;48.364;-1.224;2022-08-19T03:11:05;99804.91;;;18.85;72.82
70544;BME280;58097;48.364;-1.224;2022-08-19T03:13:31;99815.25;;;18.85;72.49
70544;BME280;58097;48.364;-1.224;2022-08-19T03:15:57;99815.91;;;18.80;73.31
70544;BME280;58097;48.364;-1.224;2022-08-19T03:18:22;99809.88;;;18.83;72.58
70544;BME280;58097;48.364;-1.224;2022-08-19T03:20:50;99811.81;;;18.83;73.00
70544;BME280;58097;48.364;-1.224;2022-08-19T03:23:19;99809.88;;;18.83;73.51
70544;BME280;58097;48.364;-1.224;2022-08-19T03:25:47;99811.59;;;18.84;73.11
70544;BME280;58097;48.364;-1.224;2022-08-19T03:28:14;99811.81;;;18.83;74.02
70544;BME280;58097;48.364;-1.224;2022-08-19T03:30:41;99812.22;;;18.73;74.32
70544;BME280;58097;48.364;-1.224;2022-08-19T03:33:09;99816.75;;;18.74;73.86
70544;BME280;58097;48.364;-1.224;2022-08-19T03:35:35;99811.56;;;18.71;73.73
70544;BME280;58097;48.364;-1.224;2022-08-19T03:38:05;99811.78;;;18.76;74.14
70544;BME280;58097;48.364;-1.224;2022-08-19T03:40:32;99812.00;;;18.75;74.59
70544;BME280;58097;48.364;-1.224;2022-08-19T03:43:01;99813.28;;;18.72;74.22
70544;BME280;58097;48.364;-1.224;2022-08-19T03:45:27;99821.47;;;18.74;73.72
70544;BME280;58097;48.364;-1.224;2022-08-19T03:47:53;99810.69;;;18.77;73.91
70544;BME280;58097;48.364;-1.224;2022-08-19T03:50:19;99820.81;;;18.78;74.16
70544;BME280;58097;48.364;-1.224;2022-08-19T03:52:49;99814.38;;;18.78;75.04
70544;BME280;58097;48.364;-1.224;2022-08-19T03:55:16;99818.03;;;18.72;75.02
70544;BME280;58097;48.364;-1.224;2022-08-19T03:57:41;99821.25;;;18.75;74.73
70544;BME280;58097;48.364;-1.224;2022-08-19T04:00:07;99816.53;;;18.76;75.54
70544;BME280;58097;48.364;-1.224;2022-08-19T04:02:34;99821.25;;;18.75;75.60
70544;BME280;58097;48.364;-1.224;2022-08-19T04:05:00;99818.47;;;18.75;75.13
70544;BME280;58097;48.364;-1.224;2022-08-19T04:07:25;99807.47;;;18.74;75.05
70544;BME280;58097;48.364;-1.224;2022-08-19T04:09:51;99810.06;;;18.75;75.41
70544;BME280;58097;48.364;-1.224;2022-08-19T04:12:17;99808.59;;;18.79;74.83
70544;BME280;58097;48.364;-1.224;2022-08-19T04:14:45;99808.75;;;18.78;75.27
70544;BME280;58097;48.364;-1.224;2022-08-19T04:17:11;99805.56;;;18.81;75.12
70544;BME280;58097;48.364;-1.224;2022-08-19T04:19:38;99803.41;;;18.83;75.61
70544;BME280;58097;48.364;-1.224;2022-08-19T04:22:04;99805.75;;;18.86;75.25
70544;BME280;58097;48.364;-1.224;2022-08-19T04:24:30;99814.16;;;18.86;75.71
70544;BME280;58097;48.364;-1.224;2022-08-19T04:26:56;99810.28;;;18.87;75.21
70544;BME280;58097;48.364;-1.224;2022-08-19T04:29:24;99821.91;;;18.91;75.69
70544;BME280;58097;48.364;-1.224;2022-08-19T04:31:51;99807.47;;;18.94;75.58
70544;BME280;58097;48.364;-1.224;2022-08-19T04:34:21;99815.88;;;18.94;74.88
70544;BME280;58097;48.364;-1.224;2022-08-19T04:36:48;99816.94;;;18.93;75.28
70544;BME280;58097;48.364;-1.224;2022-08-19T04:39:19;99810.25;;;18.94;75.17
70544;BME280;58097;48.364;-1.224;2022-08-19T04:41:45;99816.94;;;18.93;75.56
70544;BME280;58097;48.364;-1.224;2022-08-19T04:44:32;99816.50;;;18.96;75.23
70544;BME280;58097;48.364;-1.224;2022-08-19T04:46:58;99821.25;;;18.95;74.88
70544;BME280;58097;48.364;-1.224;2022-08-19T04:49:24;99818.00;;;18.98;75.68
70544;BME280;58097;48.364;-1.224;2022-08-19T04:51:52;99821.88;;;18.97;75.36
70544;BME280;58097;48.364;-1.224;2022-08-19T04:54:20;99822.31;;;18.94;76.50
70544;BME280;58097;48.364;-1.224;2022-08-19T04:56:48;99817.81;;;18.93;75.84
70544;BME280;58097;48.364;-1.224;2022-08-19T04:59:15;99812.44;;;18.92;75.48
70544;BME280;58097;48.364;-1.224;2022-08-19T05:01:42;99818.47;;;18.88;76.22
70544;BME280;58097;48.364;-1.224;2022-08-19T05:04:08;99824.50;;;18.85;76.32
70544;BME280;58097;48.364;-1.224;2022-08-19T05:06:34;99818.47;;;18.88;76.06
70544;BME280;58097;48.364;-1.224;2022-08-19T05:09:02;99817.81;;;18.86;76.19
70544;BME280;58097;48.364;-1.224;2022-08-19T05:11:30;99820.41;;;18.88;76.14
70544;BME280;58097;48.364;-1.224;2022-08-19T05:13:56;99822.13;;;18.89;75.75
70544;BME280;58097;48.364;-1.224;2022-08-19T05:16:23;99822.97;;;18.90;76.19
70544;BME280;58097;48.364;-1.224;2022-08-19T05:18:49;99828.59;;;18.90;76.24
70544;BME280;58097;48.364;-1.224;2022-08-19T05:21:36;99824.94;;;18.89;76.74
70544;BME280;58097;48.364;-1.224;2022-08-19T05:24:22;99821.69;;;18.85;76.68
70544;BME280;58097;48.364;-1.224;2022-08-19T05:26:50;99828.38;;;18.84;77.17
70544;BME280;58097;48.364;-1.224;2022-08-19T05:29:19;99825.81;;;18.83;77.21
70544;BME280;58097;48.364;-1.224;2022-08-19T05:31:46;99824.09;;;18.82;76.93
70544;BME280;58097;48.364;-1.224;2022-08-19T05:34:14;99825.59;;;18.84;76.92
70544;BME280;58097;48.364;-1.224;2022-08-19T05:36:42;99826.22;;;18.86;76.80
70544;BME280;58097;48.364;-1.224;2022-08-19T05:39:12;99832.25;;;18.83;77.71
70544;BME280;58097;48.364;-1.224;2022-08-19T05:41:59;99833.75;;;18.86;76.82
70544;BME280;58097;48.364;-1.224;2022-08-19T05:44:28;99841.72;;;18.89;76.31
70544;BME280;58097;48.364;-1.224;2022-08-19T05:46:58;99832.25;;;18.90;77.62
70544;BME280;58097;48.364;-1.224;2022-08-19T05:49:26;99836.97;;;18.90;77.44
70544;BME280;58097;48.364;-1.224;2022-08-19T05:51:53;99838.50;;;18.92;76.56
70544;BME280;58097;48.364;-1.224;2022-08-19T05:54:20;99838.69;;;18.97;76.77
70544;BME280;58097;48.364;-1.224;2022-08-19T05:56:46;99839.13;;;18.94;77.56
70544;BME280;58097;48.364;-1.224;2022-08-19T05:59:14;99843.88;;;18.94;77.04
70544;BME280;58097;48.364;-1.224;2022-08-19T06:01:44;99847.09;;;18.97;76.21
70544;BME280;58097;48.364;-1.224;2022-08-19T06:04:11;99847.09;;;18.97;77.71
70544;BME280;58097;48.364;-1.224;2022-08-19T06:06:39;99846.00;;;18.98;77.43
70544;BME280;58097;48.364;-1.224;2022-08-19T06:09:06;99849.66;;;18.99;77.80
70544;BME280;58097;48.364;-1.224;2022-08-19T06:14:21;99848.16;;;18.96;77.55
70544;BME280;58097;48.364;-1.224;2022-08-19T06:16:48;99845.16;;;18.98;77.81
70544;BME280;58097;48.364;-1.224;2022-08-19T06:19:16;99854.84;;;19.02;78.12
70544;BME280;58097;48.364;-1.224;2022-08-19T06:21:44;99843.00;;;19.00;78.36
70544;BME280;58097;48.364;-1.224;2022-08-19T06:24:13;99849.44;;;19.07;77.62
70544;BME280;58097;48.364;-1.224;2022-08-19T06:26:42;99851.38;;;19.06;77.41
70544;BME280;58097;48.364;-1.224;2022-08-19T06:29:11;99850.13;;;19.09;77.96
70544;BME280;58097;48.364;-1.224;2022-08-19T06:31:42;99843.44;;;19.10;77.55
70544;BME280;58097;48.364;-1.224;2022-08-19T06:34:08;99841.25;;;19.12;77.96
70544;BME280;58097;48.364;-1.224;2022-08-19T06:36:37;99849.22;;;19.15;77.75
70544;BME280;58097;48.364;-1.224;2022-08-19T06:39:06;99841.47;;;19.17;78.45
70544;BME280;58097;48.364;-1.224;2022-08-19T06:41:36;99842.09;;;19.19;78.46
70544;BME280;58097;48.364;-1.224;2022-08-19T06:44:02;99845.31;;;19.23;78.26
70544;BME280;58097;48.364;-1.224;2022-08-19T06:46:29;99840.59;;;19.23;78.23
70544;BME280;58097;48.364;-1.224;2022-08-19T06:48:56;99847.28;;;19.22;77.47
70544;BME280;58097;48.364;-1.224;2022-08-19T06:51:23;99846.19;;;19.23;78.18
70544;BME280;58097;48.364;-1.224;2022-08-19T06:53:51;99845.75;;;19.26;77.55
70544;BME280;58097;48.364;-1.224;2022-08-19T06:56:23;99862.75;;;19.31;78.22
70544;BME280;58097;48.364;-1.224;2022-08-19T06:58:51;99854.34;;;19.31;77.83
70544;BME280;58097;48.364;-1.224;2022-08-19T07:01:19;99849.59;;;19.32;77.98
70544;BME280;58097;48.364;-1.224;2022-08-19T07:03:45;99845.53;;;19.28;78.42
70544;BME280;58097;48.364;-1.224;2022-08-19T07:06:14;99844.66;;;19.27;78.27
70544;BME280;58097;48.364;-1.224;2022-08-19T07:08:44;99848.97;;;19.30;78.34
70544;BME280;58097;48.364;-1.224;2022-08-19T07:11:11;99855.44;;;19.30;78.35
70544;BME280;58097;48.364;-1.224;2022-08-19T07:13:38;99855.41;;;19.37;78.01
70544;BME280;58097;48.364;-1.224;2022-08-19T07:16:09;99860.59;;;19.33;78.71
70544;BME280;58097;48.364;-1.224;2022-08-19T07:18:36;99860.16;;;19.36;78.65
70544;BME280;58097;48.364;-1.224;2022-08-19T07:21:08;99863.63;;;19.38;78.42
70544;BME280;58097;48.364;-1.224;2022-08-19T07:23:35;99865.53;;;19.44;78.16
70544;BME280;58097;48.364;-1.224;2022-08-19T07:26:22;99860.56;;;19.46;78.49
70544;BME280;58097;48.364;-1.224;2022-08-19T07:28:48;99868.31;;;19.51;78.42
70544;BME280;58097;48.364;-1.224;2022-08-19T07:31:17;99859.69;;;19.59;77.72
70544;BME280;58097;48.364;-1.224;2022-08-19T07:33:44;99865.72;;;19.63;78.46
70544;BME280;58097;48.364;-1.224;2022-08-19T07:36:11;99867.00;;;19.67;78.06
70544;BME280;58097;48.364;-1.224;2022-08-19T07:38:40;99870.47;;;19.69;77.67
70544;BME280;58097;48.364;-1.224;2022-08-19T07:41:08;99877.13;;;19.74;77.68
70544;BME280;58097;48.364;-1.224;2022-08-19T07:43:34;99870.41;;;19.75;77.68
70544;BME280;58097;48.364;-1.224;2022-08-19T07:46:00;99872.78;;;19.78;77.70
70544;BME280;58097;48.364;-1.224;2022-08-19T07:48:27;99878.16;;;19.80;77.47
70544;BME280;58097;48.364;-1.224;2022-08-19T07:50:56;99874.75;;;19.71;77.32
70544;BME280;58097;48.364;-1.224;2022-08-19T07:53:23;99872.38;;;19.75;76.96
70544;BME280;58097;48.364;-1.224;2022-08-19T07:55:49;99882.31;;;19.71;77.24
70544;BME280;58097;48.364;-1.224;2022-08-19T07:58:18;99882.09;;;19.72;77.29
70544;BME280;58097;48.364;-1.224;2022-08-19T08:00:47;99882.31;;;19.71;77.63
70544;BME280;58097;48.364;-1.224;2022-08-19T08:03:17;99881.66;;;19.69;77.54
70544;BME280;58097;48.364;-1.224;2022-08-19T08:05:43;99890.72;;;19.71;77.30
70544;BME280;58097;48.364;-1.224;2022-08-19T08:08:29;99894.56;;;19.76;77.34
70544;BME280;58097;48.364;-1.224;2022-08-19T08:11:18;99888.94;;;19.83;77.29
70544;BME280;58097;48.364;-1.224;2022-08-19T08:13:44;99890.44;;;19.86;77.27
70544;BME280;58097;48.364;-1.224;2022-08-19T08:16:10;99888.50;;;19.86;77.03
70544;BME280;58097;48.364;-1.224;2022-08-19T08:18:35;99892.78;;;19.89;77.37
70544;BME280;58097;48.364;-1.224;2022-08-19T08:21:07;99898.81;;;19.92;77.11
70544;BME280;58097;48.364;-1.224;2022-08-19T08:23:33;99887.38;;;20.00;76.81
70544;BME280;58097;48.364;-1.224;2022-08-19T08:25:59;99890.56;;;20.04;77.03
70544;BME280;58097;48.364;-1.224;2022-08-19T08:28:26;99884.09;;;20.03;76.78
70544;BME280;58097;48.364;-1.224;2022-08-19T08:30:52;99889.72;;;20.03;76.68
70544;BME280;58097;48.364;-1.224;2022-08-19T08:33:21;99891.66;;;20.03;76.36
70544;BME280;58097;48.364;-1.224;2022-08-19T08:35:48;99897.88;;;20.11;77.07
70544;BME280;58097;48.364;-1.224;2022-08-19T08:38:13;99903.66;;;20.17;76.90
70544;BME280;58097;48.364;-1.224;2022-08-19T08:43:20;99896.06;;;20.24;76.66
70544;BME280;58097;48.364;-1.224;2022-08-19T08:45:52;99893.06;;;20.25;76.63
70544;BME280;58097;48.364;-1.224;2022-08-19T08:51:11;99892.56;;;20.35;76.52
70544;BME280;58097;48.364;-1.224;2022-08-19T08:53:40;99889.53;;;20.36;76.15
70544;BME280;58097;48.364;-1.224;2022-08-19T08:56:09;99892.53;;;20.41;76.45
70544;BME280;58097;48.364;-1.224;2022-08-19T08:58:59;99892.94;;;20.45;76.36
70544;BME280;58097;48.364;-1.224;2022-08-19T09:01:27;99889.47;;;20.50;75.90
70544;BME280;58097;48.364;-1.224;2022-08-19T09:03:53;99892.91;;;20.52;76.00
70544;BME280;58097;48.364;-1.224;2022-08-19T09:06:23;99891.19;;;20.51;75.96
70544;BME280;58097;48.364;-1.224;2022-08-19T09:08:56;99897.84;;;20.56;75.95
70544;BME280;58097;48.364;-1.224;2022-08-19T09:14:24;99906.09;;;20.83;75.95
70544;BME280;58097;48.364;-1.224;2022-08-19T09:16:53;99897.00;;;20.81;75.19
70544;BME280;58097;48.364;-1.224;2022-08-19T09:19:19;99893.53;;;20.85;75.14
70544;BME280;58097;48.364;-1.224;2022-08-19T09:21:44;99893.94;;;20.89;75.13
70544;BME280;58097;48.364;-1.224;2022-08-19T09:24:10;99896.69;;;20.95;74.91
70544;BME280;58097;48.364;-1.224;2022-08-19T09:26:36;99897.72;;;21.01;75.28
70544;BME280;58097;48.364;-1.224;2022-08-19T09:29:02;99898.94;;;21.12;75.34
70544;BME280;58097;48.364;-1.224;2022-08-19T09:31:30;99906.66;;;21.16;74.85
70544;BME280;58097;48.364;-1.224;2022-08-19T09:33:58;99902.50;;;21.25;74.77
70544;BME280;58097;48.364;-1.224;2022-08-19T09:36:26;99910.00;;;21.31;74.52
70544;BME280;58097;48.364;-1.224;2022-08-19T09:38:54;99907.34;;;21.37;74.02
70544;BME280;58097;48.364;-1.224;2022-08-19T09:41:22;99919.44;;;21.37;73.91
70544;BME280;58097;48.364;-1.224;2022-08-19T09:43:51;99909.53;;;21.34;73.33
70544;BME280;58097;48.364;-1.224;2022-08-19T09:46:19;99912.09;;;21.36;73.57
70544;BME280;58097;48.364;-1.224;2022-08-19T09:48:47;99915.16;;;21.34;73.85
70544;BME280;58097;48.364;-1.224;2022-08-19T09:51:16;99914.28;;;21.34;73.84
70544;BME280;58097;48.364;-1.224;2022-08-19T09:53:44;99907.78;;;21.40;73.88
70544;BME280;58097;48.364;-1.224;2022-08-19T09:56:10;99898.00;;;21.43;73.77
70544;BME280;58097;48.364;-1.224;2022-08-19T09:58:37;99907.47;;;21.48;73.71
70544;BME280;58097;48.364;-1.224;2022-08-19T10:01:04;99907.78;;;21.58;73.79
70544;BME280;58097;48.364;-1.224;2022-08-19T10:03:30;99906.84;;;21.64;73.69
70544;BME280;58097;48.364;-1.224;2022-08-19T10:05:58;99900.53;;;21.69;73.63
70544;BME280;58097;48.364;-1.224;2022-08-19T10:08:28;99896.19;;;21.67;72.98
70544;BME280;58097;48.364;-1.224;2022-08-19T10:10:55;99899.03;;;21.67;73.11
70544;BME280;58097;48.364;-1.224;2022-08-19T10:13:24;99902.69;;;21.67;72.88
70544;BME280;58097;48.364;-1.224;2022-08-19T10:15:56;99897.91;;;21.68;72.45
70544;BME280;58097;48.364;-1.224;2022-08-19T10:18:23;99895.06;;;21.74;72.92
70544;BME280;58097;48.364;-1.224;2022-08-19T10:20:50;99903.50;;;21.74;71.82
70544;BME280;58097;48.364;-1.224;2022-08-19T10:23:19;99899.75;;;21.80;71.98
70544;BME280;58097;48.364;-1.224;2022-08-19T10:25:45;99900.03;;;21.90;72.30
70544;BME280;58097;48.364;-1.224;2022-08-19T10:28:11;99905.66;;;21.90;70.65
70544;BME280;58097;48.364;-1.224;2022-08-19T10:30:38;99907.63;;;21.90;71.10
70544;BME280;58097;48.364;-1.224;2022-08-19T10:33:05;99908.31;;;21.85;70.84
70544;BME280;58097;48.364;-1.224;2022-08-19T10:35:30;99905.50;;;21.85;71.83
70544;BME280;58097;48.364;-1.224;2022-08-19T10:37:56;99905.59;;;21.79;71.34
70544;BME280;58097;48.364;-1.224;2022-08-19T10:40:27;99912.16;;;21.73;71.57
70544;BME280;58097;48.364;-1.224;2022-08-19T10:42:54;99907.00;;;21.70;72.07
70544;BME280;58097;48.364;-1.224;2022-08-19T10:45:21;99907.00;;;21.70;72.28
70544;BME280;58097;48.364;-1.224;2022-08-19T10:47:50;99899.66;;;21.69;72.08
70544;BME280;58097;48.364;-1.224;2022-08-19T10:50:15;99898.72;;;21.75;72.49
70544;BME280;58097;48.364;-1.224;2022-08-19T10:53:05;99896.44;;;21.83;72.71
70544;BME280;58097;48.364;-1.224;2022-08-19T10:55:31;99891.91;;;22.01;73.10
70544;BME280;58097;48.364;-1.224;2022-08-19T10:58:18;99884.22;;;22.26;72.38
70544;BME280;58097;48.364;-1.224;2022-08-19T11:00:57;99889.47;;;22.52;72.47
70544;BME280;58097;48.364;-1.224;2022-08-19T11:03:23;99889.75;;;22.63;70.99
70544;BME280;58097;48.364;-1.224;2022-08-19T11:06:04;99882.13;;;22.51;68.98
70544;BME280;58097;48.364;-1.224;2022-08-19T11:08:30;99885.38;;;22.37;69.60
70544;BME280;58097;48.364;-1.224;2022-08-19T11:10:58;99886.88;;;22.39;70.45
70544;BME280;58097;48.364;-1.224;2022-08-19T11:13:28;99886.50;;;22.47;70.48
70544;BME280;58097;48.364;-1.224;2022-08-19T11:16:00;99887.75;;;22.51;70.09
70544;BME280;58097;48.364;-1.224;2022-08-19T11:18:25;99887.75;;;22.51;69.35
70544;BME280;58097;48.364;-1.224;2022-08-19T11:20:51;99883.22;;;22.50;69.68
70544;BME280;58097;48.364;-1.224;2022-08-19T11:23:17;99886.50;;;22.47;69.32
70544;BME280;58097;48.364;-1.224;2022-08-19T11:25:43;99881.72;;;22.36;68.94
70544;BME280;58097;48.364;-1.224;2022-08-19T11:28:11;99888.91;;;22.32;69.43
70544;BME280;58097;48.364;-1.224;2022-08-19T11:30:38;99884.22;;;22.26;69.48
70544;BME280;58097;48.364;-1.224;2022-08-19T11:33:03;99888.84;;;22.20;68.70
70544;BME280;58097;48.364;-1.224;2022-08-19T11:35:29;99879.16;;;22.16;69.08
70544;BME280;58097;48.364;-1.224;2022-08-19T11:37:55;99889.56;;;22.16;69.60
70544;BME280;58097;48.364;-1.224;2022-08-19T11:40:23;99893.00;;;22.18;69.69
70544;BME280;58097;48.364;-1.224;2022-08-19T11:42:48;99892.63;;;22.14;69.18
70544;BME280;58097;48.364;-1.224;2022-08-19T11:45:34;99897.41;;;22.14;69.63
70544;BME280;58097;48.364;-1.224;2022-08-19T11:47:59;99897.47;;;22.07;70.30
70544;BME280;58097;48.364;-1.224;2022-08-19T11:50:25;99896.22;;;22.03;70.54
70544;BME280;58097;48.364;-1.224;2022-08-19T11:52:54;99902.31;;;22.00;71.11
70544;BME280;58097;48.364;-1.224;2022-08-19T11:55:20;99901.91;;;21.96;71.05
70544;BME280;58097;48.364;-1.224;2022-08-19T11:57:45;99896.38;;;21.90;71.04
70544;BME280;58097;48.364;-1.224;2022-08-19T12:00:14;99899.41;;;21.88;71.16
70544;BME280;58097;48.364;-1.224;2022-08-19T12:02:40;99900.75;;;21.86;71.39
70544;BME280;58097;48.364;-1.224;2022-08-19T12:05:06;99903.19;;;21.82;71.74
70544;BME280;58097;48.364;-1.224;2022-08-19T12:07:33;99911.31;;;21.72;71.37
70544;BME280;58097;48.364;-1.224;2022-08-19T12:12:24;99911.53;;;21.52;72.36
70544;BME280;58097;48.364;-1.224;2022-08-19T12:14:52;99910.97;;;21.44;72.24
70544;BME280;58097;48.364;-1.224;2022-08-19T12:17:28;99918.34;;;21.38;72.31
70544;BME280;58097;48.364;-1.224;2022-08-19T12:19:54;99913.66;;;21.32;73.61
70544;BME280;58097;48.364;-1.224;2022-08-19T12:22:19;99913.28;;;21.28;72.91
70544;BME280;58097;48.364;-1.224;2022-08-19T12:24:46;99916.53;;;21.25;73.82
70544;BME280;58097;48.364;-1.224;2022-08-19T12:27:13;99936.22;;;21.25;73.95
70544;BME280;58097;48.364;-1.224;2022-08-19T12:29:38;99929.78;;;21.18;75.11
70544;BME280;58097;48.364;-1.224;2022-08-19T12:32:05;99930.88;;;21.17;74.25
70544;BME280;58097;48.364;-1.224;2022-08-19T12:34:31;99936.47;;;21.17;74.32
70544;BME280;58097;48.364;-1.224;2022-08-19T12:36:58;99930.25;;;21.15;75.62
70544;BME280;58097;48.364;-1.224;2022-08-19T12:39:25;99933.28;;;21.14;75.50
70544;BME280;58097;48.364;-1.224;2022-08-19T12:41:51;99926.56;;;21.15;74.57
70544;BME280;58097;48.364;-1.224;2022-08-19T12:44:18;99917.03;;;21.16;74.88
70544;BME280;58097;48.364;-1.224;2022-08-19T12:46:43;99914.88;;;21.18;74.82
70544;BME280;58097;48.364;-1.224;2022-08-19T12:49:09;99915.50;;;21.20;74.72
70544;BME280;58097;48.364;-1.224;2022-08-19T12:51:35;99915.50;;;21.20;75.14
70544;BME280;58097;48.364;-1.224;2022-08-19T12:54:01;99911.16;;;21.24;75.04
70544;BME280;58097;48.364;-1.224;2022-08-19T12:56:27;99912.00;;;21.24;75.52
70544;BME280;58097;48.364;-1.224;2022-08-19T12:58:53;99900.53;;;21.26;75.18
70544;BME280;58097;48.364;-1.224;2022-08-19T13:01:20;99901.16;;;21.28;75.25
70544;BME280;58097;48.364;-1.224;2022-08-19T13:03:46;99900.94;;;21.29;76.12
70544;BME280;58097;48.364;-1.224;2022-08-19T13:06:11;99897.91;;;21.31;75.90
70544;BME280;58097;48.364;-1.224;2022-08-19T13:08:37;99897.19;;;21.36;75.17
70544;BME280;58097;48.364;-1.224;2022-08-19T13:11:14;99897.38;;;21.41;75.57